sensor_id;sensor_type;location;lat;lon;timestamp;P1;durP1;ratioP1;P2;durP2;ratioP2
912;SDS011;443;51.448;7.028;2023-04-24T00:01:39;1.20;;;0.60;;
912;SDS011;443;51.448;7.028;2023-04-24T00:04:07;1.00;;;0.60;;
912;SDS011;443;51.448;7.028;2023-04-24T00:06:36;2.07;;;0.70;;
912;SDS011;443;51.448;7.028;2023-04-24T00:09:03;1.97;;;0.63;;
912;SDS011;443;51.448;7.028;2023-04-24T00:11:30;1.00;;;0.60;;
912;SDS011;443;51.448;7.028;2023-04-24T00:13:57;1.30;;;0.60;;
912;SDS011;443;51.448;7.028;2023-04-24T00:16:25;1.37;;;0.83;;
912;SDS011;443;51.448;7.028;2023-04-24T00:18:52;1.20;;;0.80;;
912;SDS011;443;51.448;7.028;2023-04-24T00:21:19;1.80;;;0.93;;
912;SDS011;443;51.448;7.028;2023-04-24T00:23:46;1.10;;;0.70;;
912;SDS011;443;51.448;7.028;2023-04-24T00:26:13;1.23;;;0.70;;
912;SDS011;443;51.448;7.028;2023-04-24T00:28:40;1.07;;;0.90;;
912;SDS011;443;51.448;7.028;2023-04-24T00:31:07;0.90;;;0.63;;
912;SDS011;443;51.448;7.028;2023-04-24T00:33:35;1.00;;;0.70;;
912;SDS011;443;51.448;7.028;2023-04-24T00:36:02;3.23;;;0.90;;
912;SDS011;443;51.448;7.028;2023-04-24T00:38:29;2.80;;;1.13;;
912;SDS011;443;51.448;7.028;2023-04-24T00:40:56;1.60;;;1.30;;
912;SDS011;443;51.448;7.028;2023-04-24T00:43:22;1.23;;;0.80;;
912;SDS011;443;51.448;7.028;2023-04-24T00:45:49;1.23;;;0.90;;
912;SDS011;443;51.448;7.028;2023-04-24T00:48:16;1.40;;;0.93;;
912;SDS011;443;51.448;7.028;2023-04-24T00:50:45;2.30;;;1.10;;
912;SDS011;443;51.448;7.028;2023-04-24T00:53:12;1.10;;;0.80;;
912;SDS011;443;51.448;7.028;2023-04-24T00:55:38;1.57;;;0.70;;
912;SDS011;443;51.448;7.028;2023-04-24T00:58:05;1.43;;;1.03;;
912;SDS011;443;51.448;7.028;2023-04-24T01:00:32;1.80;;;1.00;;
912;SDS011;443;51.448;7.028;2023-04-24T01:02:59;1.40;;;1.07;;
912;SDS011;443;51.448;7.028;2023-04-24T01:05:30;1.30;;;0.83;;
912;SDS011;443;51.448;7.028;2023-04-24T01:08:00;4.37;;;1.87;;
912;SDS011;443;51.448;7.028;2023-04-24T01:10:29;2.20;;;1.53;;
912;SDS011;443;51.448;7.028;2023-04-24T01:12:57;1.23;;;1.03;;
912;SDS011;443;51.448;7.028;2023-04-24T01:15:24;1.80;;;1.13;;
912;SDS011;443;51.448;7.028;2023-04-24T01:17:51;1.63;;;1.10;;
912;SDS011;443;51.448;7.028;2023-04-24T01:20:18;2.37;;;1.27;;
912;SDS011;443;51.448;7.028;2023-04-24T01:22:47;1.90;;;1.50;;
912;SDS011;443;51.448;7.028;2023-04-24T01:25:14;2.97;;;1.50;;
912;SDS011;443;51.448;7.028;2023-04-24T01:27:40;1.50;;;1.17;;
912;SDS011;443;51.448;7.028;2023-04-24T01:30:07;1.20;;;1.10;;
912;SDS011;443;51.448;7.028;2023-04-24T01:32:35;1.67;;;1.27;;
912;SDS011;443;51.448;7.028;2023-04-24T01:35:03;2.00;;;1.80;;
912;SDS011;443;51.448;7.028;2023-04-24T01:37:30;2.57;;;1.73;;
912;SDS011;443;51.448;7.028;2023-04-24T01:39:59;2.50;;;2.20;;
912;SDS011;443;51.448;7.028;2023-04-24T01:42:26;2.97;;;1.93;;
912;SDS011;443;51.448;7.028;2023-04-24T01:44:53;3.30;;;2.70;;
912;SDS011;443;51.448;7.028;2023-04-24T01:47:20;3.47;;;2.73;;
912;SDS011;443;51.448;7.028;2023-04-24T01:49:47;6.07;;;2.87;;
912;SDS011;443;51.448;7.028;2023-04-24T01:52:14;2.43;;;2.07;;
912;SDS011;443;51.448;7.028;2023-04-24T01:54:41;2.57;;;2.37;;
912;SDS011;443;51.448;7.028;2023-04-24T01:57:09;2.57;;;1.63;;
912;SDS011;443;51.448;7.028;2023-04-24T01:59:36;2.33;;;1.53;;
912;SDS011;443;51.448;7.028;2023-04-24T02:02:03;3.13;;;1.97;;
912;SDS011;443;51.448;7.028;2023-04-24T02:04:29;2.90;;;2.27;;
912;SDS011;443;51.448;7.028;2023-04-24T02:06:56;3.40;;;2.00;;
912;SDS011;443;51.448;7.028;2023-04-24T02:09:23;2.40;;;2.17;;
912;SDS011;443;51.448;7.028;2023-04-24T02:11:50;3.90;;;2.90;;
912;SDS011;443;51.448;7.028;2023-04-24T02:14:18;2.90;;;2.37;;
912;SDS011;443;51.448;7.028;2023-04-24T02:16:45;3.70;;;2.33;;
912;SDS011;443;51.448;7.028;2023-04-24T02:19:11;4.63;;;3.13;;
912;SDS011;443;51.448;7.028;2023-04-24T02:21:38;4.27;;;3.77;;
912;SDS011;443;51.448;7.028;2023-04-24T02:24:05;4.80;;;3.47;;
912;SDS011;443;51.448;7.028;2023-04-24T02:26:32;6.30;;;4.27;;
912;SDS011;443;51.448;7.028;2023-04-24T02:28:58;5.50;;;4.00;;
912;SDS011;443;51.448;7.028;2023-04-24T02:31:26;6.53;;;3.80;;
912;SDS011;443;51.448;7.028;2023-04-24T02:33:53;6.37;;;4.10;;
912;SDS011;443;51.448;7.028;2023-04-24T02:36:20;7.27;;;4.70;;
912;SDS011;443;51.448;7.028;2023-04-24T02:38:47;6.43;;;5.07;;
912;SDS011;443;51.448;7.028;2023-04-24T02:41:13;5.70;;;4.13;;
912;SDS011;443;51.448;7.028;2023-04-24T02:43:40;9.47;;;5.47;;
912;SDS011;443;51.448;7.028;2023-04-24T02:46:07;6.67;;;4.77;;
912;SDS011;443;51.448;7.028;2023-04-24T02:48:35;9.37;;;5.40;;
912;SDS011;443;51.448;7.028;2023-04-24T02:51:02;9.70;;;5.10;;
912;SDS011;443;51.448;7.028;2023-04-24T02:53:29;8.40;;;4.80;;
912;SDS011;443;51.448;7.028;2023-04-24T02:55:56;6.83;;;5.40;;
912;SDS011;443;51.448;7.028;2023-04-24T02:58:23;9.73;;;7.50;;
912;SDS011;443;51.448;7.028;2023-04-24T03:00:52;5.10;;;4.37;;
912;SDS011;443;51.448;7.028;2023-04-24T03:03:20;7.40;;;6.00;;
912;SDS011;443;51.448;7.028;2023-04-24T03:05:48;8.67;;;5.40;;
912;SDS011;443;51.448;7.028;2023-04-24T03:08:15;6.70;;;5.37;;
912;SDS011;443;51.448;7.028;2023-04-24T03:10:42;7.37;;;5.77;;
912;SDS011;443;51.448;7.028;2023-04-24T03:13:09;9.43;;;5.87;;
912;SDS011;443;51.448;7.028;2023-04-24T03:15:36;10.40;;;7.27;;
912;SDS011;443;51.448;7.028;2023-04-24T03:18:03;8.07;;;7.17;;
912;SDS011;443;51.448;7.028;2023-04-24T03:20:29;14.53;;;6.37;;
912;SDS011;443;51.448;7.028;2023-04-24T03:22:57;9.40;;;6.07;;
912;SDS011;443;51.448;7.028;2023-04-24T03:25:24;8.50;;;6.90;;
912;SDS011;443;51.448;7.028;2023-04-24T03:27:51;9.67;;;5.50;;
912;SDS011;443;51.448;7.028;2023-04-24T03:30:19;7.57;;;6.00;;
912;SDS011;443;51.448;7.028;2023-04-24T03:32:46;10.03;;;6.33;;
912;SDS011;443;51.448;7.028;2023-04-24T03:35:13;11.40;;;7.43;;
912;SDS011;443;51.448;7.028;2023-04-24T03:37:39;8.90;;;5.83;;
912;SDS011;443;51.448;7.028;2023-04-24T03:40:08;7.90;;;6.70;;
912;SDS011;443;51.448;7.028;2023-04-24T03:42:35;11.67;;;6.87;;
912;SDS011;443;51.448;7.028;2023-04-24T03:45:02;12.80;;;7.77;;
912;SDS011;443;51.448;7.028;2023-04-24T03:47:29;9.57;;;6.33;;
912;SDS011;443;51.448;7.028;2023-04-24T03:49:56;10.40;;;7.80;;
912;SDS011;443;51.448;7.028;2023-04-24T03:52:23;8.70;;;7.03;;
912;SDS011;443;51.448;7.028;2023-04-24T03:54:49;9.43;;;7.30;;
912;SDS011;443;51.448;7.028;2023-04-24T03:57:18;7.40;;;6.23;;
912;SDS011;443;51.448;7.028;2023-04-24T03:59:45;11.20;;;5.33;;
912;SDS011;443;51.448;7.028;2023-04-24T04:02:12;8.03;;;6.70;;
912;SDS011;443;51.448;7.028;2023-04-24T04:04:38;9.70;;;6.90;;
912;SDS011;443;51.448;7.028;2023-04-24T04:07:05;11.67;;;7.37;;
912;SDS011;443;51.448;7.028;2023-04-24T04:09:32;7.70;;;6.50;;
912;SDS011;443;51.448;7.028;2023-04-24T04:11:59;11.77;;;7.20;;
912;SDS011;443;51.448;7.028;2023-04-24T04:14:27;9.90;;;6.93;;
912;SDS011;443;51.448;7.028;2023-04-24T04:16:54;9.20;;;6.97;;
912;SDS011;443;51.448;7.028;2023-04-24T04:19:22;10.50;;;6.37;;
912;SDS011;443;51.448;7.028;2023-04-24T04:21:49;6.43;;;5.80;;
912;SDS011;443;51.448;7.028;2023-04-24T04:24:18;8.30;;;6.80;;
912;SDS011;443;51.448;7.028;2023-04-24T04:26:45;7.00;;;4.97;;
912;SDS011;443;51.448;7.028;2023-04-24T04:29:12;7.60;;;5.70;;
912;SDS011;443;51.448;7.028;2023-04-24T04:31:42;7.53;;;5.80;;
912;SDS011;443;51.448;7.028;2023-04-24T04:34:09;8.73;;;5.60;;
912;SDS011;443;51.448;7.028;2023-04-24T04:36:36;8.47;;;7.20;;
912;SDS011;443;51.448;7.028;2023-04-24T04:39:05;5.43;;;4.50;;
912;SDS011;443;51.448;7.028;2023-04-24T04:41:31;7.53;;;5.40;;
912;SDS011;443;51.448;7.028;2023-04-24T04:44:00;7.30;;;6.23;;
912;SDS011;443;51.448;7.028;2023-04-24T04:46:29;9.00;;;6.57;;
912;SDS011;443;51.448;7.028;2023-04-24T04:48:58;10.43;;;6.57;;
912;SDS011;443;51.448;7.028;2023-04-24T04:51:26;11.17;;;7.03;;
912;SDS011;443;51.448;7.028;2023-04-24T04:53:53;8.00;;;6.80;;
912;SDS011;443;51.448;7.028;2023-04-24T04:56:20;6.40;;;4.57;;
912;SDS011;443;51.448;7.028;2023-04-24T04:58:46;7.93;;;5.87;;
912;SDS011;443;51.448;7.028;2023-04-24T05:01:13;6.73;;;4.70;;
912;SDS011;443;51.448;7.028;2023-04-24T05:03:40;10.67;;;5.77;;
912;SDS011;443;51.448;7.028;2023-04-24T05:06:08;7.63;;;5.90;;
912;SDS011;443;51.448;7.028;2023-04-24T05:08:35;7.07;;;5.67;;
912;SDS011;443;51.448;7.028;2023-04-24T05:11:02;7.40;;;6.00;;
912;SDS011;443;51.448;7.028;2023-04-24T05:13:29;7.97;;;6.10;;
912;SDS011;443;51.448;7.028;2023-04-24T05:15:55;7.80;;;5.60;;
912;SDS011;443;51.448;7.028;2023-04-24T05:18:23;6.40;;;5.23;;
912;SDS011;443;51.448;7.028;2023-04-24T05:20:50;6.57;;;4.97;;
912;SDS011;443;51.448;7.028;2023-04-24T05:23:18;8.33;;;5.70;;
912;SDS011;443;51.448;7.028;2023-04-24T05:25:44;9.23;;;6.50;;
912;SDS011;443;51.448;7.028;2023-04-24T05:28:11;6.40;;;5.23;;
912;SDS011;443;51.448;7.028;2023-04-24T05:30:38;9.93;;;5.37;;
912;SDS011;443;51.448;7.028;2023-04-24T05:33:05;2.17;;;1.90;;
912;SDS011;443;51.448;7.028;2023-04-24T05:35:31;6.77;;;5.87;;
912;SDS011;443;51.448;7.028;2023-04-24T05:37:58;5.90;;;5.00;;
912;SDS011;443;51.448;7.028;2023-04-24T05:40:26;19.07;;;6.23;;
912;SDS011;443;51.448;7.028;2023-04-24T05:42:53;6.80;;;5.70;;
912;SDS011;443;51.448;7.028;2023-04-24T05:45:20;7.20;;;6.30;;
912;SDS011;443;51.448;7.028;2023-04-24T05:47:46;5.73;;;4.80;;
912;SDS011;443;51.448;7.028;2023-04-24T05:50:13;8.37;;;4.70;;
912;SDS011;443;51.448;7.028;2023-04-24T05:52:40;12.50;;;5.00;;
912;SDS011;443;51.448;7.028;2023-04-24T05:55:07;5.93;;;4.73;;
912;SDS011;443;51.448;7.028;2023-04-24T05:57:35;6.07;;;5.00;;
912;SDS011;443;51.448;7.028;2023-04-24T06:00:02;5.80;;;5.00;;
912;SDS011;443;51.448;7.028;2023-04-24T06:02:30;6.30;;;5.40;;
912;SDS011;443;51.448;7.028;2023-04-24T06:04:57;7.53;;;4.47;;
912;SDS011;443;51.448;7.028;2023-04-24T06:07:25;5.40;;;4.13;;
912;SDS011;443;51.448;7.028;2023-04-24T06:09:52;6.70;;;5.10;;
912;SDS011;443;51.448;7.028;2023-04-24T06:12:19;7.50;;;4.50;;
912;SDS011;443;51.448;7.028;2023-04-24T06:14:47;5.57;;;4.50;;
912;SDS011;443;51.448;7.028;2023-04-24T06:17:13;8.03;;;5.80;;
912;SDS011;443;51.448;7.028;2023-04-24T06:19:41;6.13;;;4.50;;
912;SDS011;443;51.448;7.028;2023-04-24T06:22:08;6.50;;;3.97;;
912;SDS011;443;51.448;7.028;2023-04-24T06:24:34;6.63;;;4.70;;
912;SDS011;443;51.448;7.028;2023-04-24T06:27:01;6.57;;;5.67;;
912;SDS011;443;51.448;7.028;2023-04-24T06:29:28;8.60;;;5.67;;
912;SDS011;443;51.448;7.028;2023-04-24T06:31:56;8.30;;;5.47;;
912;SDS011;443;51.448;7.028;2023-04-24T06:34:23;5.87;;;4.40;;
912;SDS011;443;51.448;7.028;2023-04-24T06:36:50;6.27;;;4.73;;
912;SDS011;443;51.448;7.028;2023-04-24T06:39:16;4.40;;;4.00;;
912;SDS011;443;51.448;7.028;2023-04-24T06:41:43;5.03;;;3.90;;
912;SDS011;443;51.448;7.028;2023-04-24T06:44:10;7.47;;;5.13;;
912;SDS011;443;51.448;7.028;2023-04-24T06:46:37;5.20;;;4.33;;
912;SDS011;443;51.448;7.028;2023-04-24T06:49:05;4.53;;;4.13;;
912;SDS011;443;51.448;7.028;2023-04-24T06:51:31;4.30;;;3.43;;
912;SDS011;443;51.448;7.028;2023-04-24T06:53:58;5.43;;;3.80;;
912;SDS011;443;51.448;7.028;2023-04-24T06:56:25;6.20;;;3.63;;
912;SDS011;443;51.448;7.028;2023-04-24T06:58:53;4.43;;;3.27;;
912;SDS011;443;51.448;7.028;2023-04-24T07:01:20;4.43;;;3.10;;
912;SDS011;443;51.448;7.028;2023-04-24T07:03:47;5.03;;;3.67;;
912;SDS011;443;51.448;7.028;2023-04-24T07:06:15;5.60;;;4.00;;
912;SDS011;443;51.448;7.028;2023-04-24T07:08:43;5.30;;;3.77;;
912;SDS011;443;51.448;7.028;2023-04-24T07:11:10;5.67;;;3.43;;
912;SDS011;443;51.448;7.028;2023-04-24T07:13:37;5.47;;;4.00;;
912;SDS011;443;51.448;7.028;2023-04-24T07:16:06;5.27;;;3.53;;
912;SDS011;443;51.448;7.028;2023-04-24T07:18:33;3.70;;;2.60;;
912;SDS011;443;51.448;7.028;2023-04-24T07:21:01;2.83;;;2.43;;
912;SDS011;443;51.448;7.028;2023-04-24T07:23:29;2.30;;;2.00;;
912;SDS011;443;51.448;7.028;2023-04-24T07:25:56;2.70;;;2.40;;
912;SDS011;443;51.448;7.028;2023-04-24T07:28:23;3.70;;;1.90;;
912;SDS011;443;51.448;7.028;2023-04-24T07:30:50;2.87;;;2.63;;
912;SDS011;443;51.448;7.028;2023-04-24T07:33:18;2.23;;;2.03;;
912;SDS011;443;51.448;7.028;2023-04-24T07:35:45;2.60;;;1.83;;
912;SDS011;443;51.448;7.028;2023-04-24T07:38:12;1.90;;;1.53;;
912;SDS011;443;51.448;7.028;2023-04-24T07:40:40;3.93;;;1.70;;
912;SDS011;443;51.448;7.028;2023-04-24T07:43:07;3.53;;;1.83;;
912;SDS011;443;51.448;7.028;2023-04-24T07:45:34;2.40;;;1.13;;
912;SDS011;443;51.448;7.028;2023-04-24T07:48:02;1.33;;;1.03;;
912;SDS011;443;51.448;7.028;2023-04-24T07:50:29;2.63;;;1.00;;
912;SDS011;443;51.448;7.028;2023-04-24T07:52:55;2.07;;;1.47;;
912;SDS011;443;51.448;7.028;2023-04-24T07:55:22;1.13;;;0.90;;
912;SDS011;443;51.448;7.028;2023-04-24T07:57:50;2.70;;;0.83;;
912;SDS011;443;51.448;7.028;2023-04-24T08:00:17;1.07;;;0.63;;
912;SDS011;443;51.448;7.028;2023-04-24T08:02:44;1.00;;;0.50;;
912;SDS011;443;51.448;7.028;2023-04-24T08:05:11;1.90;;;1.60;;
912;SDS011;443;51.448;7.028;2023-04-24T08:07:38;3.33;;;0.53;;
912;SDS011;443;51.448;7.028;2023-04-24T08:10:07;0.90;;;0.50;;
912;SDS011;443;51.448;7.028;2023-04-24T08:12:35;1.70;;;1.40;;
912;SDS011;443;51.448;7.028;2023-04-24T08:15:04;0.83;;;0.60;;
912;SDS011;443;51.448;7.028;2023-04-24T08:17:32;1.80;;;0.70;;
912;SDS011;443;51.448;7.028;2023-04-24T08:19:59;2.07;;;0.70;;
912;SDS011;443;51.448;7.028;2023-04-24T08:22:27;0.80;;;0.50;;
912;SDS011;443;51.448;7.028;2023-04-24T08:24:54;2.60;;;0.70;;
912;SDS011;443;51.448;7.028;2023-04-24T08:27:22;0.77;;;0.60;;
912;SDS011;443;51.448;7.028;2023-04-24T08:29:49;2.00;;;0.70;;
912;SDS011;443;51.448;7.028;2023-04-24T08:32:17;0.80;;;0.53;;
912;SDS011;443;51.448;7.028;2023-04-24T08:34:44;0.80;;;0.60;;
912;SDS011;443;51.448;7.028;2023-04-24T08:37:10;1.10;;;0.80;;
912;SDS011;443;51.448;7.028;2023-04-24T08:39:37;0.90;;;0.50;;
912;SDS011;443;51.448;7.028;2023-04-24T08:42:04;1.43;;;0.70;;
912;SDS011;443;51.448;7.028;2023-04-24T08:44:33;0.83;;;0.70;;
912;SDS011;443;51.448;7.028;2023-04-24T08:47:01;1.10;;;0.60;;
912;SDS011;443;51.448;7.028;2023-04-24T08:49:30;2.67;;;1.20;;
912;SDS011;443;51.448;7.028;2023-04-24T08:51:57;1.37;;;1.10;;
912;SDS011;443;51.448;7.028;2023-04-24T08:54:25;1.10;;;0.90;;
912;SDS011;443;51.448;7.028;2023-04-24T08:56:53;1.47;;;1.10;;
912;SDS011;443;51.448;7.028;2023-04-24T08:59:25;1.50;;;1.00;;
912;SDS011;443;51.448;7.028;2023-04-24T09:01:53;1.67;;;1.10;;
912;SDS011;443;51.448;7.028;2023-04-24T09:04:21;1.87;;;1.00;;
912;SDS011;443;51.448;7.028;2023-04-24T09:06:51;1.43;;;0.90;;
912;SDS011;443;51.448;7.028;2023-04-24T09:09:20;1.23;;;1.10;;
912;SDS011;443;51.448;7.028;2023-04-24T09:11:48;1.53;;;1.00;;
912;SDS011;443;51.448;7.028;2023-04-24T09:14:15;2.03;;;0.97;;
912;SDS011;443;51.448;7.028;2023-04-24T09:16:42;1.70;;;1.00;;
912;SDS011;443;51.448;7.028;2023-04-24T09:19:09;0.90;;;0.70;;
912;SDS011;443;51.448;7.028;2023-04-24T09:21:36;3.17;;;1.90;;
912;SDS011;443;51.448;7.028;2023-04-24T09:24:05;1.53;;;1.07;;
912;SDS011;443;51.448;7.028;2023-04-24T09:26:35;1.70;;;1.33;;
912;SDS011;443;51.448;7.028;2023-04-24T09:29:02;1.73;;;1.10;;
912;SDS011;443;51.448;7.028;2023-04-24T09:31:30;2.17;;;1.90;;
912;SDS011;443;51.448;7.028;2023-04-24T09:33:57;3.17;;;2.40;;
912;SDS011;443;51.448;7.028;2023-04-24T09:36:29;4.40;;;3.20;;
912;SDS011;443;51.448;7.028;2023-04-24T09:38:59;3.80;;;3.03;;
912;SDS011;443;51.448;7.028;2023-04-24T09:41:28;5.57;;;3.23;;
912;SDS011;443;51.448;7.028;2023-04-24T09:43:55;6.17;;;3.80;;
912;SDS011;443;51.448;7.028;2023-04-24T09:46:28;3.50;;;3.20;;
912;SDS011;443;51.448;7.028;2023-04-24T09:48:56;12.10;;;3.70;;
912;SDS011;443;51.448;7.028;2023-04-24T09:51:32;3.37;;;2.93;;
912;SDS011;443;51.448;7.028;2023-04-24T09:54:01;3.47;;;2.60;;
912;SDS011;443;51.448;7.028;2023-04-24T09:56:30;2.80;;;2.10;;
912;SDS011;443;51.448;7.028;2023-04-24T09:59:03;2.70;;;2.23;;
912;SDS011;443;51.448;7.028;2023-04-24T10:01:31;6.13;;;3.43;;
912;SDS011;443;51.448;7.028;2023-04-24T10:03:58;3.37;;;2.20;;
912;SDS011;443;51.448;7.028;2023-04-24T10:06:29;2.10;;;1.73;;
912;SDS011;443;51.448;7.028;2023-04-24T10:08:57;5.00;;;2.67;;
912;SDS011;443;51.448;7.028;2023-04-24T10:11:25;3.50;;;2.83;;
912;SDS011;443;51.448;7.028;2023-04-24T10:13:54;4.83;;;2.80;;
912;SDS011;443;51.448;7.028;2023-04-24T10:16:22;4.50;;;2.33;;
912;SDS011;443;51.448;7.028;2023-04-24T10:18:52;9.50;;;3.03;;
912;SDS011;443;51.448;7.028;2023-04-24T10:21:19;5.13;;;3.60;;
912;SDS011;443;51.448;7.028;2023-04-24T10:23:46;3.87;;;3.27;;
912;SDS011;443;51.448;7.028;2023-04-24T10:26:15;4.40;;;3.23;;
912;SDS011;443;51.448;7.028;2023-04-24T10:28:44;5.90;;;2.93;;
912;SDS011;443;51.448;7.028;2023-04-24T10:31:13;3.80;;;3.03;;
912;SDS011;443;51.448;7.028;2023-04-24T10:33:40;4.53;;;3.30;;
912;SDS011;443;51.448;7.028;2023-04-24T10:36:09;5.63;;;3.13;;
912;SDS011;443;51.448;7.028;2023-04-24T10:38:38;4.07;;;3.33;;
912;SDS011;443;51.448;7.028;2023-04-24T10:41:07;6.23;;;3.33;;
912;SDS011;443;51.448;7.028;2023-04-24T10:43:40;8.80;;;3.43;;
912;SDS011;443;51.448;7.028;2023-04-24T10:46:07;6.07;;;3.57;;
912;SDS011;443;51.448;7.028;2023-04-24T10:48:36;11.30;;;3.60;;
912;SDS011;443;51.448;7.028;2023-04-24T10:51:10;10.00;;;3.70;;
912;SDS011;443;51.448;7.028;2023-04-24T10:53:39;6.83;;;3.87;;
912;SDS011;443;51.448;7.028;2023-04-24T10:56:06;6.00;;;2.60;;
912;SDS011;443;51.448;7.028;2023-04-24T10:58:36;10.30;;;3.73;;
912;SDS011;443;51.448;7.028;2023-04-24T11:01:05;5.10;;;3.50;;
912;SDS011;443;51.448;7.028;2023-04-24T11:03:32;12.20;;;4.60;;
912;SDS011;443;51.448;7.028;2023-04-24T11:06:02;6.50;;;3.60;;
912;SDS011;443;51.448;7.028;2023-04-24T11:08:31;8.07;;;3.20;;
912;SDS011;443;51.448;7.028;2023-04-24T11:11:03;12.20;;;3.80;;
912;SDS011;443;51.448;7.028;2023-04-24T11:16:33;6.10;;;3.83;;
912;SDS011;443;51.448;7.028;2023-04-24T11:19:17;6.10;;;3.90;;
912;SDS011;443;51.448;7.028;2023-04-24T11:21:46;11.77;;;3.33;;
912;SDS011;443;51.448;7.028;2023-04-24T11:24:26;9.80;;;4.63;;
912;SDS011;443;51.448;7.028;2023-04-24T11:26:56;9.83;;;3.83;;
912;SDS011;443;51.448;7.028;2023-04-24T11:29:37;9.47;;;3.97;;
912;SDS011;443;51.448;7.028;2023-04-24T11:32:14;8.30;;;3.10;;
912;SDS011;443;51.448;7.028;2023-04-24T11:34:59;4.83;;;3.33;;
912;SDS011;443;51.448;7.028;2023-04-24T11:37:29;5.40;;;3.30;;
912;SDS011;443;51.448;7.028;2023-04-24T11:40:00;8.07;;;4.00;;
912;SDS011;443;51.448;7.028;2023-04-24T11:42:27;7.43;;;4.30;;
912;SDS011;443;51.448;7.028;2023-04-24T11:44:54;7.40;;;3.10;;
912;SDS011;443;51.448;7.028;2023-04-24T11:47:27;5.53;;;3.60;;
912;SDS011;443;51.448;7.028;2023-04-24T11:49:55;4.37;;;2.60;;
912;SDS011;443;51.448;7.028;2023-04-24T11:52:21;7.93;;;2.27;;
912;SDS011;443;51.448;7.028;2023-04-24T11:54:50;4.93;;;3.37;;
912;SDS011;443;51.448;7.028;2023-04-24T11:57:18;7.87;;;2.53;;
912;SDS011;443;51.448;7.028;2023-04-24T11:59:46;5.43;;;2.57;;
912;SDS011;443;51.448;7.028;2023-04-24T12:02:19;4.60;;;2.30;;
912;SDS011;443;51.448;7.028;2023-04-24T12:04:47;18.30;;;3.00;;
912;SDS011;443;51.448;7.028;2023-04-24T12:07:14;7.97;;;2.77;;
912;SDS011;443;51.448;7.028;2023-04-24T12:09:41;9.70;;;3.00;;
912;SDS011;443;51.448;7.028;2023-04-24T12:12:10;4.00;;;2.80;;
912;SDS011;443;51.448;7.028;2023-04-24T12:14:44;5.33;;;3.00;;
912;SDS011;443;51.448;7.028;2023-04-24T12:17:13;3.93;;;2.37;;
912;SDS011;443;51.448;7.028;2023-04-24T12:19:44;4.17;;;2.83;;
912;SDS011;443;51.448;7.028;2023-04-24T12:22:12;4.30;;;2.67;;
912;SDS011;443;51.448;7.028;2023-04-24T12:27:25;6.40;;;3.10;;
912;SDS011;443;51.448;7.028;2023-04-24T12:29:53;7.87;;;2.90;;
912;SDS011;443;51.448;7.028;2023-04-24T12:32:20;4.57;;;3.43;;
912;SDS011;443;51.448;7.028;2023-04-24T12:34:47;5.80;;;2.57;;
912;SDS011;443;51.448;7.028;2023-04-24T12:37:15;6.60;;;3.30;;
912;SDS011;443;51.448;7.028;2023-04-24T12:39:44;4.70;;;2.70;;
912;SDS011;443;51.448;7.028;2023-04-24T12:42:26;5.83;;;2.80;;
912;SDS011;443;51.448;7.028;2023-04-24T12:44:56;2.90;;;1.97;;
912;SDS011;443;51.448;7.028;2023-04-24T12:47:24;3.50;;;2.30;;
912;SDS011;443;51.448;7.028;2023-04-24T12:49:51;2.97;;;1.87;;
912;SDS011;443;51.448;7.028;2023-04-24T12:52:18;6.90;;;3.73;;
912;SDS011;443;51.448;7.028;2023-04-24T12:54:45;3.90;;;2.13;;
912;SDS011;443;51.448;7.028;2023-04-24T12:57:12;3.50;;;2.00;;
912;SDS011;443;51.448;7.028;2023-04-24T12:59:40;4.60;;;1.87;;
912;SDS011;443;51.448;7.028;2023-04-24T13:02:07;3.07;;;1.40;;
912;SDS011;443;51.448;7.028;2023-04-24T13:04:35;2.67;;;2.47;;
912;SDS011;443;51.448;7.028;2023-04-24T13:07:01;3.50;;;1.80;;
912;SDS011;443;51.448;7.028;2023-04-24T13:09:28;6.20;;;2.13;;
912;SDS011;443;51.448;7.028;2023-04-24T13:11:55;2.03;;;1.50;;
912;SDS011;443;51.448;7.028;2023-04-24T13:14:22;5.20;;;2.37;;
912;SDS011;443;51.448;7.028;2023-04-24T13:16:50;4.57;;;1.63;;
912;SDS011;443;51.448;7.028;2023-04-24T13:19:17;5.40;;;1.90;;
912;SDS011;443;51.448;7.028;2023-04-24T13:21:44;2.97;;;1.30;;
912;SDS011;443;51.448;7.028;2023-04-24T13:24:11;2.03;;;1.50;;
912;SDS011;443;51.448;7.028;2023-04-24T13:26:38;3.50;;;1.27;;
912;SDS011;443;51.448;7.028;2023-04-24T13:29:05;2.80;;;1.20;;
912;SDS011;443;51.448;7.028;2023-04-24T13:31:31;1.60;;;1.30;;
912;SDS011;443;51.448;7.028;2023-04-24T13:34:00;1.20;;;1.10;;
912;SDS011;443;51.448;7.028;2023-04-24T13:36:27;2.87;;;1.13;;
912;SDS011;443;51.448;7.028;2023-04-24T13:38:54;1.77;;;1.27;;
912;SDS011;443;51.448;7.028;2023-04-24T13:41:20;4.00;;;1.13;;
912;SDS011;443;51.448;7.028;2023-04-24T13:43:47;3.20;;;1.50;;
912;SDS011;443;51.448;7.028;2023-04-24T13:46:14;1.60;;;1.10;;
912;SDS011;443;51.448;7.028;2023-04-24T13:48:40;1.40;;;0.90;;
912;SDS011;443;51.448;7.028;2023-04-24T13:51:09;5.13;;;1.37;;
912;SDS011;443;51.448;7.028;2023-04-24T13:53:35;5.87;;;2.13;;
912;SDS011;443;51.448;7.028;2023-04-24T13:56:03;1.23;;;0.90;;
912;SDS011;443;51.448;7.028;2023-04-24T13:58:30;2.00;;;1.13;;
912;SDS011;443;51.448;7.028;2023-04-24T14:00:57;1.53;;;0.90;;
912;SDS011;443;51.448;7.028;2023-04-24T14:03:24;2.97;;;1.30;;
912;SDS011;443;51.448;7.028;2023-04-24T14:05:51;2.17;;;0.90;;
912;SDS011;443;51.448;7.028;2023-04-24T14:08:19;2.73;;;0.87;;
912;SDS011;443;51.448;7.028;2023-04-24T14:10:46;2.53;;;1.50;;
912;SDS011;443;51.448;7.028;2023-04-24T14:13:12;2.73;;;1.17;;
912;SDS011;443;51.448;7.028;2023-04-24T14:15:39;1.50;;;0.83;;
912;SDS011;443;51.448;7.028;2023-04-24T14:18:06;3.73;;;1.30;;
912;SDS011;443;51.448;7.028;2023-04-24T14:20:33;2.80;;;1.37;;
912;SDS011;443;51.448;7.028;2023-04-24T14:23:00;3.00;;;1.13;;
912;SDS011;443;51.448;7.028;2023-04-24T14:25:28;1.83;;;1.30;;
912;SDS011;443;51.448;7.028;2023-04-24T14:27:55;2.03;;;1.40;;
912;SDS011;443;51.448;7.028;2023-04-24T14:30:21;2.80;;;1.03;;
912;SDS011;443;51.448;7.028;2023-04-24T14:32:48;3.00;;;1.30;;
912;SDS011;443;51.448;7.028;2023-04-24T14:35:15;2.40;;;1.00;;
912;SDS011;443;51.448;7.028;2023-04-24T14:37:42;1.40;;;1.13;;
912;SDS011;443;51.448;7.028;2023-04-24T14:40:09;2.20;;;1.37;;
912;SDS011;443;51.448;7.028;2023-04-24T14:42:38;3.17;;;1.50;;
912;SDS011;443;51.448;7.028;2023-04-24T14:45:05;2.90;;;1.33;;
912;SDS011;443;51.448;7.028;2023-04-24T14:47:33;1.50;;;1.30;;
912;SDS011;443;51.448;7.028;2023-04-24T14:50:00;2.17;;;1.10;;
912;SDS011;443;51.448;7.028;2023-04-24T14:52:27;2.97;;;1.20;;
912;SDS011;443;51.448;7.028;2023-04-24T14:54:54;1.87;;;1.20;;
912;SDS011;443;51.448;7.028;2023-04-24T14:57:21;2.73;;;1.60;;
912;SDS011;443;51.448;7.028;2023-04-24T14:59:50;3.67;;;1.23;;
912;SDS011;443;51.448;7.028;2023-04-24T15:02:17;2.43;;;1.30;;
912;SDS011;443;51.448;7.028;2023-04-24T15:04:43;6.07;;;1.40;;
912;SDS011;443;51.448;7.028;2023-04-24T15:07:10;3.47;;;1.30;;
912;SDS011;443;51.448;7.028;2023-04-24T15:09:37;3.43;;;1.80;;
912;SDS011;443;51.448;7.028;2023-04-24T15:12:04;2.70;;;1.60;;
912;SDS011;443;51.448;7.028;2023-04-24T15:14:30;2.43;;;1.47;;
912;SDS011;443;51.448;7.028;2023-04-24T15:16:59;2.90;;;1.97;;
912;SDS011;443;51.448;7.028;2023-04-24T15:19:25;3.47;;;1.60;;
912;SDS011;443;51.448;7.028;2023-04-24T15:21:52;1.00;;;0.67;;
912;SDS011;443;51.448;7.028;2023-04-24T15:24:19;4.00;;;1.90;;
912;SDS011;443;51.448;7.028;2023-04-24T15:26:46;7.30;;;1.43;;
912;SDS011;443;51.448;7.028;2023-04-24T15:29:12;2.43;;;1.80;;
912;SDS011;443;51.448;7.028;2023-04-24T15:31:39;3.80;;;1.10;;
912;SDS011;443;51.448;7.028;2023-04-24T15:34:07;2.73;;;1.33;;
912;SDS011;443;51.448;7.028;2023-04-24T15:36:34;3.30;;;1.60;;
912;SDS011;443;51.448;7.028;2023-04-24T15:39:01;2.47;;;2.13;;
912;SDS011;443;51.448;7.028;2023-04-24T15:41:28;2.50;;;1.80;;
912;SDS011;443;51.448;7.028;2023-04-24T15:43:56;3.33;;;1.40;;
912;SDS011;443;51.448;7.028;2023-04-24T15:46:23;4.93;;;1.87;;
912;SDS011;443;51.448;7.028;2023-04-24T15:48:50;2.13;;;1.30;;
912;SDS011;443;51.448;7.028;2023-04-24T15:51:18;6.10;;;1.77;;
912;SDS011;443;51.448;7.028;2023-04-24T15:53:45;1.70;;;1.20;;